Alafaya, Florida
Current Conditions -  °F | °C
As of 8:47 PM on Monday 20 Oct 2014 (Local Time) from KTIX Reporting Station
Clear Clear  
Wind Chill: 73°   Ceiling: Unl
Heat Index: 73°   Visibility: 7mi
Dew Point: 68°   Wind: 6mph
Humidity: 83%   Direction: 80°E
Pressure: 29.98"   Gusts: NA
Location:  28.4078°N, 81.0314°W
Report Text: KTIX 210047Z 08005KT 7SM SKC 23/20 A2998 RMK LAST
Loading
Personal Weather Stations






























Interactive Weather Map
Tropical Storm Tracking
New forecast layout! Learn more

10-Day Weather Forecast

Advertisements
Track Severe Weather on mobile